This is the latest recevied weather packets stored in our database for station/object LZ1PDB-12. If no packets are shown the sender has not sent any weather packets the latest 10 day(s).
| Time | Temp. | Humidity | Pressure | Rain* | Wind** | Luminosity | Snow |
|---|---|---|---|---|---|---|---|
| 1777974484 | 18.33° C | 40% | 1021.3 hPa | - | - | - | - |
| 1777973583 | 17.78° C | 40% | 1021.5 hPa | - | - | - | - |
| 1777972683 | 17.22° C | 41% | 1021.6 hPa | - | - | - | - |
| 1777971783 | 16.67° C | 43% | 1021.7 hPa | - | - | - | - |
| 1777970883 | 16.11° C | 42% | 1021.8 hPa | - | - | - | - |
| 1777969983 | 15.56° C | 43% | 1021.8 hPa | - | - | - | - |
| 1777969083 | 15° C | 44% | 1021.9 hPa | - | - | - | - |
| 1777968182 | 14.44° C | 46% | 1021.9 hPa | - | - | - | - |
| 1777967282 | 13.89° C | 47% | 1022 hPa | - | - | - | - |
| 1777966381 | 13.33° C | 49% | 1022 hPa | - | - | - | - |
| 1777965481 | 12.78° C | 49% | 1021.9 hPa | - | - | - | - |
| 1777964580 | 12.78° C | 50% | 1022.1 hPa | - | - | - | - |
| 1777963680 | 12.22° C | 53% | 1022.2 hPa | - | - | - | - |
| 1777962780 | 12.22° C | 52% | 1022.2 hPa | - | - | - | - |
| 1777961876 | 12.22° C | 51% | 1022.2 hPa | - | - | - | - |
| 1777960976 | 11.67° C | 51% | 1022.1 hPa | - | - | - | - |
| 1777960075 | 11.67° C | 51% | 1022.2 hPa | - | - | - | - |
| 1777959174 | 11.67° C | 49% | 1022.1 hPa | - | - | - | - |
| 1777958274 | 11.67° C | 49% | 1022.1 hPa | - | - | - | - |
| 1777957374 | 11.11° C | 49% | 1022.1 hPa | - | - | - | - |
| 1777956473 | 10.56° C | 51% | 1022.1 hPa | - | - | - | - |
| 1777955573 | 11.11° C | 50% | 1022.1 hPa | - | - | - | - |
| 1777954673 | 11.11° C | 50% | 1022.1 hPa | - | - | - | - |
| 1777953772 | 11.67° C | 49% | 1022.1 hPa | - | - | - | - |
| 1777952872 | 11.11° C | 50% | 1022.2 hPa | - | - | - | - |
* Rain since midnight (hover to see other rain measurements)
** Current wind speed in m/s (hover to see current wind gust speed)